sensor_id;sensor_type;location;lat;lon;timestamp;temperature;humidity
26541;DHT22;14206;50.202;10.948;2023-12-22T00:02:19;4.90;94.80
26541;DHT22;14206;50.202;10.948;2023-12-22T00:04:46;4.90;95.20
26541;DHT22;14206;50.202;10.948;2023-12-22T00:07:13;4.90;95.50
26541;DHT22;14206;50.202;10.948;2023-12-22T00:09:40;4.90;96.10
26541;DHT22;14206;50.202;10.948;2023-12-22T00:12:08;4.90;95.90
26541;DHT22;14206;50.202;10.948;2023-12-22T00:14:35;4.90;96.10
26541;DHT22;14206;50.202;10.948;2023-12-22T00:17:01;4.90;95.80
26541;DHT22;14206;50.202;10.948;2023-12-22T00:19:29;5.00;95.60
26541;DHT22;14206;50.202;10.948;2023-12-22T00:21:56;5.00;95.80
26541;DHT22;14206;50.202;10.948;2023-12-22T00:24:23;5.10;95.50
26541;DHT22;14206;50.202;10.948;2023-12-22T00:26:50;5.10;95.30
26541;DHT22;14206;50.202;10.948;2023-12-22T00:29:17;5.20;94.70
26541;DHT22;14206;50.202;10.948;2023-12-22T00:31:47;5.20;94.60
26541;DHT22;14206;50.202;10.948;2023-12-22T00:34:14;5.20;94.20
26541;DHT22;14206;50.202;10.948;2023-12-22T00:36:41;5.20;94.10
26541;DHT22;14206;50.202;10.948;2023-12-22T00:39:08;5.20;94.20
26541;DHT22;14206;50.202;10.948;2023-12-22T00:41:35;5.10;95.10
26541;DHT22;14206;50.202;10.948;2023-12-22T00:44:02;5.10;94.90
26541;DHT22;14206;50.202;10.948;2023-12-22T00:46:29;5.10;95.30
26541;DHT22;14206;50.202;10.948;2023-12-22T00:48:56;5.00;95.90
26541;DHT22;14206;50.202;10.948;2023-12-22T00:51:22;5.00;96.10
26541;DHT22;14206;50.202;10.948;2023-12-22T00:53:49;5.00;96.30
26541;DHT22;14206;50.202;10.948;2023-12-22T00:56:16;4.90;96.40
26541;DHT22;14206;50.202;10.948;2023-12-22T00:58:43;4.90;96.60
26541;DHT22;14206;50.202;10.948;2023-12-22T01:01:21;4.90;96.60
26541;DHT22;14206;50.202;10.948;2023-12-22T01:03:48;4.90;96.20
26541;DHT22;14206;50.202;10.948;2023-12-22T01:06:14;4.90;96.20
26541;DHT22;14206;50.202;10.948;2023-12-22T01:08:41;5.00;96.60
26541;DHT22;14206;50.202;10.948;2023-12-22T01:11:08;5.00;96.40
26541;DHT22;14206;50.202;10.948;2023-12-22T01:13:35;5.10;96.30
26541;DHT22;14206;50.202;10.948;2023-12-22T01:16:02;5.20;96.20
26541;DHT22;14206;50.202;10.948;2023-12-22T01:18:29;5.20;96.20
26541;DHT22;14206;50.202;10.948;2023-12-22T01:20:56;5.20;96.10
26541;DHT22;14206;50.202;10.948;2023-12-22T01:23:23;5.30;96.50
26541;DHT22;14206;50.202;10.948;2023-12-22T01:25:52;5.30;96.60
26541;DHT22;14206;50.202;10.948;2023-12-22T01:28:19;5.30;96.60
26541;DHT22;14206;50.202;10.948;2023-12-22T01:30:45;5.30;96.60
26541;DHT22;14206;50.202;10.948;2023-12-22T01:33:12;5.30;96.60
26541;DHT22;14206;50.202;10.948;2023-12-22T01:35:39;5.30;96.60
26541;DHT22;14206;50.202;10.948;2023-12-22T01:38:06;5.40;96.60
26541;DHT22;14206;50.202;10.948;2023-12-22T01:40:33;5.40;96.60
26541;DHT22;14206;50.202;10.948;2023-12-22T01:43:01;5.40;96.60
26541;DHT22;14206;50.202;10.948;2023-12-22T01:45:28;5.40;96.60
26541;DHT22;14206;50.202;10.948;2023-12-22T01:47:55;5.40;96.60
26541;DHT22;14206;50.202;10.948;2023-12-22T01:50:22;5.40;96.60
26541;DHT22;14206;50.202;10.948;2023-12-22T01:52:50;5.40;96.60
26541;DHT22;14206;50.202;10.948;2023-12-22T01:55:17;5.40;96.60
26541;DHT22;14206;50.202;10.948;2023-12-22T01:57:46;5.40;96.60
26541;DHT22;14206;50.202;10.948;2023-12-22T02:00:14;5.40;96.60
26541;DHT22;14206;50.202;10.948;2023-12-22T02:02:41;5.40;96.60
26541;DHT22;14206;50.202;10.948;2023-12-22T02:05:12;5.40;96.60
26541;DHT22;14206;50.202;10.948;2023-12-22T02:07:41;5.40;96.60
26541;DHT22;14206;50.202;10.948;2023-12-22T02:10:09;5.40;96.60
26541;DHT22;14206;50.202;10.948;2023-12-22T02:12:38;5.40;96.60
26541;DHT22;14206;50.202;10.948;2023-12-22T02:15:06;5.30;96.60
26541;DHT22;14206;50.202;10.948;2023-12-22T02:17:43;5.30;96.60
26541;DHT22;14206;50.202;10.948;2023-12-22T02:20:12;5.30;96.60
26541;DHT22;14206;50.202;10.948;2023-12-22T02:22:39;5.30;96.60
26541;DHT22;14206;50.202;10.948;2023-12-22T02:25:06;5.30;96.60
26541;DHT22;14206;50.202;10.948;2023-12-22T02:27:42;5.30;96.60
26541;DHT22;14206;50.202;10.948;2023-12-22T02:31:00;5.30;96.60
26541;DHT22;14206;50.202;10.948;2023-12-22T02:33:02;5.30;96.60
26541;DHT22;14206;50.202;10.948;2023-12-22T02:35:32;5.30;96.60
26541;DHT22;14206;50.202;10.948;2023-12-22T02:38:02;5.30;96.60
26541;DHT22;14206;50.202;10.948;2023-12-22T02:40:30;5.30;96.60
26541;DHT22;14206;50.202;10.948;2023-12-22T02:42:58;5.20;96.60
26541;DHT22;14206;50.202;10.948;2023-12-22T02:45:25;5.20;96.60
26541;DHT22;14206;50.202;10.948;2023-12-22T02:47:52;5.20;96.60
26541;DHT22;14206;50.202;10.948;2023-12-22T02:50:19;5.20;96.60
26541;DHT22;14206;50.202;10.948;2023-12-22T02:52:46;5.20;96.60
26541;DHT22;14206;50.202;10.948;2023-12-22T02:55:13;5.20;96.60
26541;DHT22;14206;50.202;10.948;2023-12-22T02:57:40;5.20;96.60
26541;DHT22;14206;50.202;10.948;2023-12-22T03:00:07;5.20;96.60
26541;DHT22;14206;50.202;10.948;2023-12-22T03:02:34;5.20;96.60
26541;DHT22;14206;50.202;10.948;2023-12-22T03:05:01;5.20;96.60
26541;DHT22;14206;50.202;10.948;2023-12-22T03:07:28;5.20;96.60
26541;DHT22;14206;50.202;10.948;2023-12-22T03:09:55;5.20;96.60
26541;DHT22;14206;50.202;10.948;2023-12-22T03:12:22;5.20;96.60
26541;DHT22;14206;50.202;10.948;2023-12-22T03:14:49;5.20;96.60
26541;DHT22;14206;50.202;10.948;2023-12-22T03:17:16;5.20;96.60
26541;DHT22;14206;50.202;10.948;2023-12-22T03:19:42;5.10;96.60
26541;DHT22;14206;50.202;10.948;2023-12-22T03:22:09;5.10;96.60
26541;DHT22;14206;50.202;10.948;2023-12-22T03:24:36;5.10;96.60
26541;DHT22;14206;50.202;10.948;2023-12-22T03:27:04;5.00;96.60
26541;DHT22;14206;50.202;10.948;2023-12-22T03:29:31;5.00;96.60
26541;DHT22;14206;50.202;10.948;2023-12-22T03:31:58;5.00;96.60
26541;DHT22;14206;50.202;10.948;2023-12-22T03:34:25;5.00;96.60
26541;DHT22;14206;50.202;10.948;2023-12-22T03:36:51;4.90;96.60
26541;DHT22;14206;50.202;10.948;2023-12-22T03:39:18;4.90;96.60
26541;DHT22;14206;50.202;10.948;2023-12-22T03:41:45;4.90;96.60
26541;DHT22;14206;50.202;10.948;2023-12-22T03:44:12;4.90;96.60
26541;DHT22;14206;50.202;10.948;2023-12-22T03:46:39;4.90;96.60
26541;DHT22;14206;50.202;10.948;2023-12-22T03:49:06;5.00;96.60
26541;DHT22;14206;50.202;10.948;2023-12-22T03:51:33;5.00;96.60
26541;DHT22;14206;50.202;10.948;2023-12-22T03:53:59;5.00;96.60
26541;DHT22;14206;50.202;10.948;2023-12-22T03:56:27;5.10;96.60
26541;DHT22;14206;50.202;10.948;2023-12-22T03:58:54;5.10;96.60
26541;DHT22;14206;50.202;10.948;2023-12-22T04:01:22;5.10;96.60
26541;DHT22;14206;50.202;10.948;2023-12-22T04:03:49;5.10;96.60
26541;DHT22;14206;50.202;10.948;2023-12-22T04:06:16;5.10;96.60
26541;DHT22;14206;50.202;10.948;2023-12-22T04:08:42;5.10;96.60
26541;DHT22;14206;50.202;10.948;2023-12-22T04:11:10;5.10;96.60
26541;DHT22;14206;50.202;10.948;2023-12-22T04:13:36;5.10;96.60
26541;DHT22;14206;50.202;10.948;2023-12-22T04:16:04;5.10;96.60
26541;DHT22;14206;50.202;10.948;2023-12-22T04:18:31;5.10;96.60
26541;DHT22;14206;50.202;10.948;2023-12-22T04:20:59;5.10;96.60
26541;DHT22;14206;50.202;10.948;2023-12-22T04:23:26;5.10;96.60
26541;DHT22;14206;50.202;10.948;2023-12-22T04:25:53;5.10;96.60
26541;DHT22;14206;50.202;10.948;2023-12-22T04:28:19;5.20;96.60
26541;DHT22;14206;50.202;10.948;2023-12-22T04:30:46;5.20;96.60
26541;DHT22;14206;50.202;10.948;2023-12-22T04:33:13;5.10;96.60
26541;DHT22;14206;50.202;10.948;2023-12-22T04:35:40;5.10;96.60
26541;DHT22;14206;50.202;10.948;2023-12-22T04:38:07;5.10;96.60
26541;DHT22;14206;50.202;10.948;2023-12-22T04:40:35;5.10;96.60
26541;DHT22;14206;50.202;10.948;2023-12-22T04:43:02;5.20;96.60
26541;DHT22;14206;50.202;10.948;2023-12-22T04:45:30;5.20;96.60
26541;DHT22;14206;50.202;10.948;2023-12-22T04:47:59;5.20;96.60
26541;DHT22;14206;50.202;10.948;2023-12-22T04:50:26;5.20;96.60
26541;DHT22;14206;50.202;10.948;2023-12-22T04:52:53;5.20;96.60
26541;DHT22;14206;50.202;10.948;2023-12-22T04:55:20;5.30;96.60
26541;DHT22;14206;50.202;10.948;2023-12-22T04:57:47;5.30;96.50
26541;DHT22;14206;50.202;10.948;2023-12-22T05:00:14;5.30;95.90
26541;DHT22;14206;50.202;10.948;2023-12-22T05:02:41;5.30;96.00
26541;DHT22;14206;50.202;10.948;2023-12-22T05:05:09;5.30;95.40
26541;DHT22;14206;50.202;10.948;2023-12-22T05:07:36;5.30;95.50
26541;DHT22;14206;50.202;10.948;2023-12-22T05:10:03;5.30;94.90
26541;DHT22;14206;50.202;10.948;2023-12-22T05:12:30;5.30;94.60
26541;DHT22;14206;50.202;10.948;2023-12-22T05:14:57;5.40;94.30
26541;DHT22;14206;50.202;10.948;2023-12-22T05:17:24;5.30;94.60
26541;DHT22;14206;50.202;10.948;2023-12-22T05:19:51;5.30;94.60
26541;DHT22;14206;50.202;10.948;2023-12-22T05:22:18;5.30;94.40
26541;DHT22;14206;50.202;10.948;2023-12-22T05:24:45;5.20;94.30
26541;DHT22;14206;50.202;10.948;2023-12-22T05:27:12;5.20;94.50
26541;DHT22;14206;50.202;10.948;2023-12-22T05:29:39;5.10;94.60
26541;DHT22;14206;50.202;10.948;2023-12-22T05:32:06;5.00;94.90
26541;DHT22;14206;50.202;10.948;2023-12-22T05:34:33;5.00;95.10
26541;DHT22;14206;50.202;10.948;2023-12-22T05:37:00;4.90;95.70
26541;DHT22;14206;50.202;10.948;2023-12-22T05:39:26;4.80;95.90
26541;DHT22;14206;50.202;10.948;2023-12-22T05:41:53;4.80;95.90
26541;DHT22;14206;50.202;10.948;2023-12-22T05:44:20;4.80;96.60
26541;DHT22;14206;50.202;10.948;2023-12-22T05:46:49;4.80;96.60
26541;DHT22;14206;50.202;10.948;2023-12-22T05:49:16;4.80;96.60
26541;DHT22;14206;50.202;10.948;2023-12-22T05:51:43;4.80;96.60
26541;DHT22;14206;50.202;10.948;2023-12-22T05:54:11;4.80;96.60
26541;DHT22;14206;50.202;10.948;2023-12-22T05:56:38;4.80;96.60
26541;DHT22;14206;50.202;10.948;2023-12-22T05:59:05;4.80;96.60
26541;DHT22;14206;50.202;10.948;2023-12-22T06:01:32;4.80;96.60
26541;DHT22;14206;50.202;10.948;2023-12-22T06:03:59;4.70;96.60
26541;DHT22;14206;50.202;10.948;2023-12-22T06:06:26;4.70;96.60
26541;DHT22;14206;50.202;10.948;2023-12-22T06:08:54;4.70;96.60
26541;DHT22;14206;50.202;10.948;2023-12-22T06:11:21;4.70;96.60
26541;DHT22;14206;50.202;10.948;2023-12-22T06:13:49;4.70;96.60
26541;DHT22;14206;50.202;10.948;2023-12-22T06:16:16;4.70;96.60
26541;DHT22;14206;50.202;10.948;2023-12-22T06:18:45;4.70;96.60
26541;DHT22;14206;50.202;10.948;2023-12-22T06:21:12;4.70;96.60
26541;DHT22;14206;50.202;10.948;2023-12-22T06:23:39;4.70;96.60
26541;DHT22;14206;50.202;10.948;2023-12-22T06:26:10;4.70;96.60
26541;DHT22;14206;50.202;10.948;2023-12-22T06:28:37;4.80;96.60
26541;DHT22;14206;50.202;10.948;2023-12-22T06:31:07;4.70;96.60
26541;DHT22;14206;50.202;10.948;2023-12-22T06:33:35;4.70;96.60
26541;DHT22;14206;50.202;10.948;2023-12-22T06:36:02;4.70;96.60
26541;DHT22;14206;50.202;10.948;2023-12-22T06:38:30;4.70;96.60
26541;DHT22;14206;50.202;10.948;2023-12-22T06:40:57;4.70;96.60
26541;DHT22;14206;50.202;10.948;2023-12-22T06:43:24;4.70;96.60
26541;DHT22;14206;50.202;10.948;2023-12-22T06:45:51;4.70;96.60
26541;DHT22;14206;50.202;10.948;2023-12-22T06:48:22;4.70;96.60
26541;DHT22;14206;50.202;10.948;2023-12-22T06:50:49;4.70;96.50
26541;DHT22;14206;50.202;10.948;2023-12-22T06:53:16;4.80;96.30
26541;DHT22;14206;50.202;10.948;2023-12-22T06:55:51;4.80;96.30
26541;DHT22;14206;50.202;10.948;2023-12-22T06:58:19;4.80;96.60
26541;DHT22;14206;50.202;10.948;2023-12-22T07:00:48;4.80;96.50
26541;DHT22;14206;50.202;10.948;2023-12-22T07:03:15;4.90;96.40
26541;DHT22;14206;50.202;10.948;2023-12-22T07:05:44;4.90;96.60
26541;DHT22;14206;50.202;10.948;2023-12-22T07:08:11;4.80;96.60
26541;DHT22;14206;50.202;10.948;2023-12-22T07:10:39;4.80;96.60
26541;DHT22;14206;50.202;10.948;2023-12-22T07:13:06;4.70;96.60
26541;DHT22;14206;50.202;10.948;2023-12-22T07:15:33;4.70;96.60
26541;DHT22;14206;50.202;10.948;2023-12-22T07:18:00;4.70;96.60
26541;DHT22;14206;50.202;10.948;2023-12-22T07:20:28;4.70;96.60
26541;DHT22;14206;50.202;10.948;2023-12-22T07:22:55;4.70;96.60
26541;DHT22;14206;50.202;10.948;2023-12-22T07:25:23;4.60;96.60
26541;DHT22;14206;50.202;10.948;2023-12-22T07:27:50;4.60;96.60
26541;DHT22;14206;50.202;10.948;2023-12-22T07:30:18;4.60;96.60
26541;DHT22;14206;50.202;10.948;2023-12-22T07:32:47;4.60;96.60
26541;DHT22;14206;50.202;10.948;2023-12-22T07:35:19;4.60;96.60
26541;DHT22;14206;50.202;10.948;2023-12-22T07:37:46;4.70;96.60
26541;DHT22;14206;50.202;10.948;2023-12-22T07:40:14;4.70;96.60
26541;DHT22;14206;50.202;10.948;2023-12-22T07:42:43;4.80;96.60
26541;DHT22;14206;50.202;10.948;2023-12-22T07:45:10;4.80;96.60
26541;DHT22;14206;50.202;10.948;2023-12-22T07:47:40;4.90;96.60
26541;DHT22;14206;50.202;10.948;2023-12-22T07:50:07;4.90;96.60
26541;DHT22;14206;50.202;10.948;2023-12-22T07:52:35;5.00;96.60
26541;DHT22;14206;50.202;10.948;2023-12-22T07:55:10;5.00;96.60
26541;DHT22;14206;50.202;10.948;2023-12-22T07:57:38;5.00;96.60
26541;DHT22;14206;50.202;10.948;2023-12-22T08:00:05;5.10;96.60
26541;DHT22;14206;50.202;10.948;2023-12-22T08:02:37;5.10;96.60
26541;DHT22;14206;50.202;10.948;2023-12-22T08:05:04;5.10;96.60
26541;DHT22;14206;50.202;10.948;2023-12-22T08:07:32;5.10;96.60
26541;DHT22;14206;50.202;10.948;2023-12-22T08:09:59;5.20;96.60
26541;DHT22;14206;50.202;10.948;2023-12-22T08:12:25;5.20;96.60
26541;DHT22;14206;50.202;10.948;2023-12-22T08:14:54;5.30;96.60
26541;DHT22;14206;50.202;10.948;2023-12-22T08:17:21;5.30;96.60
26541;DHT22;14206;50.202;10.948;2023-12-22T08:19:47;5.40;96.60
26541;DHT22;14206;50.202;10.948;2023-12-22T08:22:16;5.50;96.60
26541;DHT22;14206;50.202;10.948;2023-12-22T08:24:44;5.60;96.60
26541;DHT22;14206;50.202;10.948;2023-12-22T08:27:12;5.60;96.60
26541;DHT22;14206;50.202;10.948;2023-12-22T08:29:38;5.70;96.60
26541;DHT22;14206;50.202;10.948;2023-12-22T08:32:05;5.80;96.60
26541;DHT22;14206;50.202;10.948;2023-12-22T08:34:32;5.80;96.60
26541;DHT22;14206;50.202;10.948;2023-12-22T08:36:59;5.90;96.60
26541;DHT22;14206;50.202;10.948;2023-12-22T08:39:27;5.90;96.60
26541;DHT22;14206;50.202;10.948;2023-12-22T08:41:54;6.00;96.50
26541;DHT22;14206;50.202;10.948;2023-12-22T08:44:21;6.00;96.60
26541;DHT22;14206;50.202;10.948;2023-12-22T08:46:48;6.00;96.10
26541;DHT22;14206;50.202;10.948;2023-12-22T08:49:16;6.10;96.30
26541;DHT22;14206;50.202;10.948;2023-12-22T08:51:43;6.10;96.10
26541;DHT22;14206;50.202;10.948;2023-12-22T08:54:10;6.10;95.70
26541;DHT22;14206;50.202;10.948;2023-12-22T08:56:44;6.10;94.90
26541;DHT22;14206;50.202;10.948;2023-12-22T08:59:10;6.20;94.80
26541;DHT22;14206;50.202;10.948;2023-12-22T09:01:37;6.20;94.70
26541;DHT22;14206;50.202;10.948;2023-12-22T09:04:04;6.20;94.30
26541;DHT22;14206;50.202;10.948;2023-12-22T09:06:33;6.30;94.50
26541;DHT22;14206;50.202;10.948;2023-12-22T09:09:00;6.40;93.90
26541;DHT22;14206;50.202;10.948;2023-12-22T09:11:27;6.40;93.80
26541;DHT22;14206;50.202;10.948;2023-12-22T09:13:53;6.50;92.60
26541;DHT22;14206;50.202;10.948;2023-12-22T09:16:21;6.50;91.90
26541;DHT22;14206;50.202;10.948;2023-12-22T09:18:49;6.50;91.90
26541;DHT22;14206;50.202;10.948;2023-12-22T09:21:17;6.60;91.70
26541;DHT22;14206;50.202;10.948;2023-12-22T09:23:45;6.70;91.10
26541;DHT22;14206;50.202;10.948;2023-12-22T09:26:13;6.70;91.30
26541;DHT22;14206;50.202;10.948;2023-12-22T09:28:41;6.80;89.70
26541;DHT22;14206;50.202;10.948;2023-12-22T09:31:08;6.80;90.50
26541;DHT22;14206;50.202;10.948;2023-12-22T09:33:36;6.80;90.30
26541;DHT22;14206;50.202;10.948;2023-12-22T09:36:04;6.90;90.40
26541;DHT22;14206;50.202;10.948;2023-12-22T09:38:31;6.90;90.70
26541;DHT22;14206;50.202;10.948;2023-12-22T09:40:58;6.80;90.90
26541;DHT22;14206;50.202;10.948;2023-12-22T09:43:26;6.90;90.70
26541;DHT22;14206;50.202;10.948;2023-12-22T09:45:53;6.80;91.20
26541;DHT22;14206;50.202;10.948;2023-12-22T09:48:21;6.90;91.10
26541;DHT22;14206;50.202;10.948;2023-12-22T09:50:54;6.90;91.20
26541;DHT22;14206;50.202;10.948;2023-12-22T09:53:21;6.90;91.30
26541;DHT22;14206;50.202;10.948;2023-12-22T09:55:50;7.00;90.80
26541;DHT22;14206;50.202;10.948;2023-12-22T09:58:17;7.00;90.50
26541;DHT22;14206;50.202;10.948;2023-12-22T10:00:45;7.00;91.20
26541;DHT22;14206;50.202;10.948;2023-12-22T10:03:12;7.00;90.70
26541;DHT22;14206;50.202;10.948;2023-12-22T10:05:43;7.00;90.80
26541;DHT22;14206;50.202;10.948;2023-12-22T10:08:10;7.10;90.90
26541;DHT22;14206;50.202;10.948;2023-12-22T10:10:39;7.20;90.00
26541;DHT22;14206;50.202;10.948;2023-12-22T10:13:07;7.20;90.00
26541;DHT22;14206;50.202;10.948;2023-12-22T10:15:39;7.20;90.50
26541;DHT22;14206;50.202;10.948;2023-12-22T10:18:08;7.30;90.50
26541;DHT22;14206;50.202;10.948;2023-12-22T10:20:35;7.30;90.30
26541;DHT22;14206;50.202;10.948;2023-12-22T10:23:11;7.30;90.10
26541;DHT22;14206;50.202;10.948;2023-12-22T10:25:40;7.20;90.60
26541;DHT22;14206;50.202;10.948;2023-12-22T10:28:10;7.20;90.80
26541;DHT22;14206;50.202;10.948;2023-12-22T10:30:37;7.20;90.60
26541;DHT22;14206;50.202;10.948;2023-12-22T10:33:06;7.20;90.50
26541;DHT22;14206;50.202;10.948;2023-12-22T10:35:33;7.20;90.80
26541;DHT22;14206;50.202;10.948;2023-12-22T10:38:00;7.10;91.20
26541;DHT22;14206;50.202;10.948;2023-12-22T10:40:30;7.10;91.10
26541;DHT22;14206;50.202;10.948;2023-12-22T10:42:58;7.00;91.90
26541;DHT22;14206;50.202;10.948;2023-12-22T10:45:25;7.00;92.30
26541;DHT22;14206;50.202;10.948;2023-12-22T10:47:52;7.00;92.60
26541;DHT22;14206;50.202;10.948;2023-12-22T10:50:21;6.90;93.40
26541;DHT22;14206;50.202;10.948;2023-12-22T10:52:51;6.90;94.70
26541;DHT22;14206;50.202;10.948;2023-12-22T10:55:19;6.90;95.00
26541;DHT22;14206;50.202;10.948;2023-12-22T10:57:46;6.90;95.50
26541;DHT22;14206;50.202;10.948;2023-12-22T11:00:20;6.70;95.50
26541;DHT22;14206;50.202;10.948;2023-12-22T11:02:48;6.60;96.60
26541;DHT22;14206;50.202;10.948;2023-12-22T11:05:18;6.50;96.60
26541;DHT22;14206;50.202;10.948;2023-12-22T11:07:49;6.40;96.60
26541;DHT22;14206;50.202;10.948;2023-12-22T11:10:20;6.40;96.60
26541;DHT22;14206;50.202;10.948;2023-12-22T11:12:48;6.30;96.60
26541;DHT22;14206;50.202;10.948;2023-12-22T11:15:18;6.30;96.60
26541;DHT22;14206;50.202;10.948;2023-12-22T11:17:46;6.20;96.60
26541;DHT22;14206;50.202;10.948;2023-12-22T11:20:16;6.10;96.60
26541;DHT22;14206;50.202;10.948;2023-12-22T11:22:45;6.10;96.60
26541;DHT22;14206;50.202;10.948;2023-12-22T11:25:14;6.10;96.60
26541;DHT22;14206;50.202;10.948;2023-12-22T11:27:43;6.10;96.60
26541;DHT22;14206;50.202;10.948;2023-12-22T11:30:12;6.10;96.60
26541;DHT22;14206;50.202;10.948;2023-12-22T11:32:41;6.10;96.60
26541;DHT22;14206;50.202;10.948;2023-12-22T11:35:09;6.20;96.60
26541;DHT22;14206;50.202;10.948;2023-12-22T11:37:38;6.30;96.60
26541;DHT22;14206;50.202;10.948;2023-12-22T11:40:06;6.40;96.60
26541;DHT22;14206;50.202;10.948;2023-12-22T11:42:40;6.60;96.60
26541;DHT22;14206;50.202;10.948;2023-12-22T11:45:13;6.70;96.60
26541;DHT22;14206;50.202;10.948;2023-12-22T11:47:42;6.70;96.60
26541;DHT22;14206;50.202;10.948;2023-12-22T11:50:10;6.80;96.60
26541;DHT22;14206;50.202;10.948;2023-12-22T11:52:38;6.80;96.60
26541;DHT22;14206;50.202;10.948;2023-12-22T11:55:06;6.80;96.60
26541;DHT22;14206;50.202;10.948;2023-12-22T11:57:35;6.80;96.60
26541;DHT22;14206;50.202;10.948;2023-12-22T12:00:08;6.70;96.60
26541;DHT22;14206;50.202;10.948;2023-12-22T12:02:39;6.60;96.60
26541;DHT22;14206;50.202;10.948;2023-12-22T12:05:08;6.50;96.60
26541;DHT22;14206;50.202;10.948;2023-12-22T12:07:39;6.40;96.60
26541;DHT22;14206;50.202;10.948;2023-12-22T12:10:10;6.30;96.60
26541;DHT22;14206;50.202;10.948;2023-12-22T12:12:38;6.20;96.60
26541;DHT22;14206;50.202;10.948;2023-12-22T12:15:17;6.00;96.60
26541;DHT22;14206;50.202;10.948;2023-12-22T12:17:44;5.90;96.60
26541;DHT22;14206;50.202;10.948;2023-12-22T12:20:12;5.70;96.60
26541;DHT22;14206;50.202;10.948;2023-12-22T12:22:39;5.60;96.60
26541;DHT22;14206;50.202;10.948;2023-12-22T12:25:08;5.50;96.60
26541;DHT22;14206;50.202;10.948;2023-12-22T12:27:47;5.50;96.60
26541;DHT22;14206;50.202;10.948;2023-12-22T12:30:15;5.40;96.60
26541;DHT22;14206;50.202;10.948;2023-12-22T12:32:44;5.40;96.60
26541;DHT22;14206;50.202;10.948;2023-12-22T12:35:12;5.40;96.60
26541;DHT22;14206;50.202;10.948;2023-12-22T12:37:40;5.50;96.60
26541;DHT22;14206;50.202;10.948;2023-12-22T12:40:07;5.40;96.60
26541;DHT22;14206;50.202;10.948;2023-12-22T12:42:36;5.40;96.60
26541;DHT22;14206;50.202;10.948;2023-12-22T12:45:07;5.40;96.60
26541;DHT22;14206;50.202;10.948;2023-12-22T12:47:34;5.40;96.60
26541;DHT22;14206;50.202;10.948;2023-12-22T12:50:01;5.40;96.60
26541;DHT22;14206;50.202;10.948;2023-12-22T12:52:30;5.30;96.60
26541;DHT22;14206;50.202;10.948;2023-12-22T12:54:57;5.30;96.60
26541;DHT22;14206;50.202;10.948;2023-12-22T12:57:25;5.30;96.60
26541;DHT22;14206;50.202;10.948;2023-12-22T12:59:53;5.30;96.60
26541;DHT22;14206;50.202;10.948;2023-12-22T13:02:21;5.30;96.60
26541;DHT22;14206;50.202;10.948;2023-12-22T13:04:49;5.30;96.60
26541;DHT22;14206;50.202;10.948;2023-12-22T13:07:25;5.30;96.60
26541;DHT22;14206;50.202;10.948;2023-12-22T13:09:53;5.30;96.60
26541;DHT22;14206;50.202;10.948;2023-12-22T13:12:21;5.20;96.60
26541;DHT22;14206;50.202;10.948;2023-12-22T13:14:48;5.30;96.60
26541;DHT22;14206;50.202;10.948;2023-12-22T13:17:16;5.30;96.60
26541;DHT22;14206;50.202;10.948;2023-12-22T13:19:43;5.40;96.60
26541;DHT22;14206;50.202;10.948;2023-12-22T13:22:10;5.50;96.60
26541;DHT22;14206;50.202;10.948;2023-12-22T13:24:37;5.60;96.60
26541;DHT22;14206;50.202;10.948;2023-12-22T13:27:04;5.60;96.60
26541;DHT22;14206;50.202;10.948;2023-12-22T13:29:44;5.60;96.60
26541;DHT22;14206;50.202;10.948;2023-12-22T13:32:19;5.70;96.60
26541;DHT22;14206;50.202;10.948;2023-12-22T13:34:53;5.80;96.60
26541;DHT22;14206;50.202;10.948;2023-12-22T13:37:21;5.80;96.60
26541;DHT22;14206;50.202;10.948;2023-12-22T13:39:50;5.80;96.60
26541;DHT22;14206;50.202;10.948;2023-12-22T13:42:18;5.80;96.60
26541;DHT22;14206;50.202;10.948;2023-12-22T13:44:48;5.90;96.60
26541;DHT22;14206;50.202;10.948;2023-12-22T13:47:16;5.90;96.60
26541;DHT22;14206;50.202;10.948;2023-12-22T13:49:43;5.80;96.60
26541;DHT22;14206;50.202;10.948;2023-12-22T13:52:30;5.90;96.60
26541;DHT22;14206;50.202;10.948;2023-12-22T13:55:13;5.90;96.60
26541;DHT22;14206;50.202;10.948;2023-12-22T13:57:42;6.00;96.60
26541;DHT22;14206;50.202;10.948;2023-12-22T14:02:50;6.00;96.60
26541;DHT22;14206;50.202;10.948;2023-12-22T14:05:18;6.00;96.60
26541;DHT22;14206;50.202;10.948;2023-12-22T14:07:45;6.00;96.60
26541;DHT22;14206;50.202;10.948;2023-12-22T14:10:12;6.00;96.60
26541;DHT22;14206;50.202;10.948;2023-12-22T14:12:40;6.00;96.60
26541;DHT22;14206;50.202;10.948;2023-12-22T14:15:08;6.00;96.60
26541;DHT22;14206;50.202;10.948;2023-12-22T14:17:35;6.00;96.60
26541;DHT22;14206;50.202;10.948;2023-12-22T14:20:03;6.00;96.60
26541;DHT22;14206;50.202;10.948;2023-12-22T14:22:31;6.00;96.60
26541;DHT22;14206;50.202;10.948;2023-12-22T14:24:58;6.00;96.60
26541;DHT22;14206;50.202;10.948;2023-12-22T14:27:25;5.90;96.60
26541;DHT22;14206;50.202;10.948;2023-12-22T14:29:52;5.90;96.60
26541;DHT22;14206;50.202;10.948;2023-12-22T14:32:19;5.90;96.60
26541;DHT22;14206;50.202;10.948;2023-12-22T14:34:46;5.90;96.60
26541;DHT22;14206;50.202;10.948;2023-12-22T14:37:13;5.90;96.60
26541;DHT22;14206;50.202;10.948;2023-12-22T14:39:40;6.00;96.60
26541;DHT22;14206;50.202;10.948;2023-12-22T14:42:07;6.00;96.60
26541;DHT22;14206;50.202;10.948;2023-12-22T14:44:34;6.00;96.60
26541;DHT22;14206;50.202;10.948;2023-12-22T14:47:01;6.00;96.60
26541;DHT22;14206;50.202;10.948;2023-12-22T14:49:28;6.00;96.60
26541;DHT22;14206;50.202;10.948;2023-12-22T14:51:55;6.10;96.60
26541;DHT22;14206;50.202;10.948;2023-12-22T14:54:23;6.10;96.60
26541;DHT22;14206;50.202;10.948;2023-12-22T14:56:50;6.10;96.60
26541;DHT22;14206;50.202;10.948;2023-12-22T14:59:17;6.20;96.60
26541;DHT22;14206;50.202;10.948;2023-12-22T15:01:44;6.20;96.60
26541;DHT22;14206;50.202;10.948;2023-12-22T15:04:16;6.30;96.60
26541;DHT22;14206;50.202;10.948;2023-12-22T15:06:45;6.30;96.60
26541;DHT22;14206;50.202;10.948;2023-12-22T15:09:13;6.30;96.60
26541;DHT22;14206;50.202;10.948;2023-12-22T15:11:41;6.40;96.60
26541;DHT22;14206;50.202;10.948;2023-12-22T15:14:09;6.40;96.60
26541;DHT22;14206;50.202;10.948;2023-12-22T15:16:43;6.40;96.60
26541;DHT22;14206;50.202;10.948;2023-12-22T15:19:12;6.40;96.60
26541;DHT22;14206;50.202;10.948;2023-12-22T15:21:39;6.40;96.60
26541;DHT22;14206;50.202;10.948;2023-12-22T15:24:06;6.30;96.60
26541;DHT22;14206;50.202;10.948;2023-12-22T15:26:33;6.30;96.60
26541;DHT22;14206;50.202;10.948;2023-12-22T15:29:04;6.20;96.60
26541;DHT22;14206;50.202;10.948;2023-12-22T15:31:31;6.20;96.60
26541;DHT22;14206;50.202;10.948;2023-12-22T15:34:04;6.10;96.60
26541;DHT22;14206;50.202;10.948;2023-12-22T15:36:37;6.10;96.60
26541;DHT22;14206;50.202;10.948;2023-12-22T15:39:04;6.10;96.60